createdAt,value
2024-02-11T00:02:15.034Z,52.90
2024-02-11T00:04:43.742Z,52.50
2024-02-11T00:07:12.581Z,52.10
2024-02-11T00:09:39.872Z,51.80
2024-02-11T00:12:08.661Z,51.37
2024-02-11T00:14:36.093Z,52.17
2024-02-11T00:17:03.580Z,51.27
2024-02-11T00:19:31.688Z,51.36
2024-02-11T00:21:59.025Z,51.35
2024-02-11T00:24:31.362Z,51.25
2024-02-11T00:26:59.026Z,51.07
2024-02-11T00:29:26.205Z,51.15
2024-02-11T00:31:53.464Z,51.36
2024-02-11T00:34:21.140Z,50.97
2024-02-11T00:36:48.492Z,50.86
2024-02-11T00:39:16.029Z,51.10
2024-02-11T00:41:44.099Z,51.46
2024-02-11T00:44:12.070Z,52.08
2024-02-11T00:46:39.473Z,51.54
2024-02-11T00:49:08.020Z,51.59
2024-02-11T00:51:35.356Z,51.75
2024-02-11T00:54:05.365Z,51.29
2024-02-11T00:56:33.180Z,51.28
2024-02-11T00:59:00.712Z,52.50
2024-02-11T01:01:28.008Z,52.06
2024-02-11T01:03:58.614Z,53.02
2024-02-11T01:06:26.504Z,52.81
2024-02-11T01:08:53.912Z,52.52
2024-02-11T01:11:21.612Z,52.25
2024-02-11T01:13:50.006Z,52.33
2024-02-11T01:16:17.301Z,51.89
2024-02-11T01:18:47.920Z,51.75
2024-02-11T01:21:15.381Z,53.47
2024-02-11T01:23:42.616Z,54.37
2024-02-11T01:26:10.435Z,52.90
2024-02-11T01:28:37.793Z,53.52
2024-02-11T01:31:05.081Z,54.03
2024-02-11T01:33:32.860Z,53.71
2024-02-11T01:36:00.221Z,54.04
2024-02-11T01:38:27.431Z,53.56
2024-02-11T01:40:55.048Z,54.28
2024-02-11T01:43:23.065Z,54.19
2024-02-11T01:45:50.306Z,53.73
2024-02-11T01:48:18.014Z,54.14
2024-02-11T01:50:45.454Z,53.32
2024-02-11T01:53:13.099Z,53.54
2024-02-11T01:55:42.268Z,53.67
2024-02-11T01:58:10.100Z,53.66
2024-02-11T02:00:38.458Z,53.73
2024-02-11T02:03:06.365Z,53.80
2024-02-11T02:05:33.650Z,53.48
2024-02-11T02:08:01.098Z,53.92
2024-02-11T02:10:28.665Z,53.79
2024-02-11T02:12:55.928Z,53.39
2024-02-11T02:15:27.345Z,53.68
2024-02-11T02:17:56.116Z,54.06
2024-02-11T02:20:23.473Z,53.13
2024-02-11T02:22:50.848Z,52.93
2024-02-11T02:25:18.366Z,54.64
2024-02-11T02:27:45.633Z,54.34
2024-02-11T02:30:13.752Z,54.47
2024-02-11T02:32:41.383Z,54.78
2024-02-11T02:35:08.832Z,55.40
2024-02-11T02:37:36.430Z,53.66
2024-02-11T02:40:04.783Z,56.21
2024-02-11T02:42:32.020Z,57.17
2024-02-11T02:44:59.261Z,56.22
2024-02-11T02:47:26.787Z,55.92
2024-02-11T02:49:53.910Z,56.30
2024-02-11T02:52:21.282Z,55.83
2024-02-11T02:54:49.255Z,57.63
2024-02-11T02:57:16.618Z,57.90
2024-02-11T02:59:43.943Z,56.63
2024-02-11T03:02:14.021Z,57.58
2024-02-11T03:04:42.052Z,59.07
2024-02-11T03:07:09.255Z,59.18
2024-02-11T03:09:36.777Z,59.03
2024-02-11T03:12:04.158Z,59.28
2024-02-11T03:14:32.592Z,58.65
2024-02-11T03:17:00.643Z,58.11
2024-02-11T03:19:27.974Z,58.02
2024-02-11T03:21:55.156Z,55.58
2024-02-11T03:24:22.854Z,55.59
2024-02-11T03:26:50.273Z,58.72
2024-02-11T03:29:21.491Z,57.79
2024-02-11T03:31:50.767Z,56.99
2024-02-11T03:34:18.520Z,57.05
2024-02-11T03:36:45.836Z,57.32
2024-02-11T03:39:13.938Z,57.43
2024-02-11T03:41:41.047Z,56.93
2024-02-11T03:44:08.466Z,57.19
2024-02-11T03:46:36.438Z,57.36
2024-02-11T03:49:03.911Z,57.11
2024-02-11T03:51:31.966Z,56.12
2024-02-11T03:54:03.452Z,55.75
2024-02-11T03:56:31.009Z,55.11
2024-02-11T03:58:58.737Z,54.01
2024-02-11T04:01:29.267Z,56.55
2024-02-11T04:03:56.929Z,57.55
2024-02-11T04:06:24.321Z,58.42
2024-02-11T04:08:51.669Z,59.78
2024-02-11T04:11:19.718Z,59.00
2024-02-11T04:13:47.203Z,58.30
2024-02-11T04:16:18.479Z,58.42
2024-02-11T04:18:49.735Z,58.77
2024-02-11T04:21:17.638Z,58.96
2024-02-11T04:23:51.215Z,59.62
2024-02-11T04:26:19.446Z,59.08
2024-02-11T04:28:49.931Z,59.05
2024-02-11T04:31:20.547Z,59.28
2024-02-11T04:33:48.628Z,61.29
2024-02-11T04:36:20.747Z,60.03
2024-02-11T04:38:49.278Z,60.13
2024-02-11T04:41:18.804Z,61.86
2024-02-11T04:43:50.461Z,62.65
2024-02-11T04:46:18.643Z,61.62
2024-02-11T04:48:46.511Z,63.42
2024-02-11T04:51:16.566Z,63.85
2024-02-11T04:54:14.619Z,61.46
2024-02-11T04:56:47.445Z,61.46
2024-02-11T04:59:16.662Z,64.17
2024-02-11T05:01:44.888Z,64.03
2024-02-11T05:04:12.406Z,63.63
2024-02-11T05:06:41.957Z,63.33
2024-02-11T05:09:09.742Z,63.30
2024-02-11T05:11:37.135Z,66.09
2024-02-11T05:14:04.570Z,64.41
2024-02-11T05:16:32.331Z,63.43
2024-02-11T05:19:00.902Z,63.97
2024-02-11T05:21:28.502Z,64.22
2024-02-11T05:23:56.414Z,63.88
2024-02-11T05:26:23.986Z,63.90
2024-02-11T05:28:51.461Z,62.89
2024-02-11T05:31:22.606Z,61.88
2024-02-11T05:33:52.878Z,63.96
2024-02-11T05:36:22.383Z,64.00
2024-02-11T05:38:49.679Z,63.61
2024-02-11T05:41:21.214Z,61.86
2024-02-11T05:43:50.635Z,62.91
2024-02-11T05:46:18.156Z,61.00
2024-02-11T05:48:46.862Z,61.62
2024-02-11T05:51:16.020Z,62.18
2024-02-11T05:53:43.456Z,61.98
2024-02-11T05:56:13.080Z,62.83
2024-02-11T05:58:41.978Z,64.12
2024-02-11T06:01:09.466Z,63.39
2024-02-11T06:03:37.652Z,63.67
2024-02-11T06:06:07.876Z,62.75
2024-02-11T06:08:37.473Z,62.34
2024-02-11T06:11:05.461Z,63.39
2024-02-11T06:13:32.754Z,61.83
2024-02-11T06:16:00.072Z,60.63
2024-02-11T06:18:28.141Z,61.92
2024-02-11T06:20:56.108Z,62.69
2024-02-11T06:23:25.057Z,63.32
2024-02-11T06:26:06.099Z,62.36
2024-02-11T06:28:43.021Z,62.26
2024-02-11T06:31:14.739Z,60.93
2024-02-11T06:33:43.000Z,62.00
2024-02-11T06:36:12.130Z,61.87
2024-02-11T06:38:41.997Z,63.42
2024-02-11T06:41:09.530Z,63.43
2024-02-11T06:43:37.368Z,62.68
2024-02-11T06:46:05.456Z,61.97
2024-02-11T06:48:32.874Z,62.14
2024-02-11T06:51:01.015Z,61.99
2024-02-11T06:53:29.744Z,63.76
2024-02-11T06:55:57.373Z,63.91
2024-02-11T06:58:25.131Z,62.92
2024-02-11T07:00:54.613Z,62.06
2024-02-11T07:03:25.037Z,63.08
2024-02-11T07:05:54.014Z,63.27
2024-02-11T07:08:22.660Z,64.11
2024-02-11T07:10:51.060Z,63.32
2024-02-11T07:13:18.931Z,62.98
2024-02-11T07:15:48.103Z,62.42
2024-02-11T07:18:15.856Z,63.50
2024-02-11T07:20:44.436Z,64.31
2024-02-11T07:23:12.131Z,64.37
2024-02-11T07:25:39.596Z,63.70
2024-02-11T07:28:07.386Z,64.13
2024-02-11T07:30:35.713Z,64.45
2024-02-11T07:33:03.210Z,64.69
2024-02-11T07:35:31.081Z,63.64
2024-02-11T07:37:58.668Z,62.62
2024-02-11T07:40:26.482Z,60.70
2024-02-11T07:42:54.878Z,61.74
2024-02-11T07:45:22.305Z,62.75
2024-02-11T07:47:50.651Z,62.32
2024-02-11T07:50:19.909Z,60.48
2024-02-11T07:52:48.980Z,59.76
2024-02-11T07:55:17.582Z,59.64
2024-02-11T07:57:48.612Z,58.50
2024-02-11T08:00:21.440Z,58.37
2024-02-11T08:02:52.724Z,59.30
2024-02-11T08:05:23.564Z,59.16
2024-02-11T08:07:53.941Z,61.74
2024-02-11T08:10:23.263Z,61.78
2024-02-11T08:12:53.933Z,61.39
2024-02-11T08:15:22.657Z,60.81
2024-02-11T08:17:50.964Z,61.14
2024-02-11T08:20:22.325Z,59.84
2024-02-11T08:22:55.659Z,58.91
2024-02-11T08:25:24.240Z,57.06
2024-02-11T08:27:52.326Z,57.76
2024-02-11T08:30:50.467Z,58.53
2024-02-11T08:33:35.763Z,58.58
2024-02-11T08:36:03.438Z,56.61
2024-02-11T08:38:36.505Z,56.99
2024-02-11T08:41:05.054Z,54.50
2024-02-11T08:43:33.218Z,55.00
2024-02-11T08:46:05.182Z,52.92
2024-02-11T08:48:34.368Z,52.63
2024-02-11T08:51:02.766Z,52.82
2024-02-11T08:53:32.047Z,52.94
2024-02-11T08:56:00.147Z,52.08
2024-02-11T08:58:29.357Z,52.56
2024-02-11T09:00:57.465Z,53.01
2024-02-11T09:03:25.422Z,52.96
2024-02-11T09:05:53.138Z,53.02
2024-02-11T09:08:26.654Z,52.90
2024-02-11T09:10:55.157Z,51.79
2024-02-11T09:13:22.663Z,51.92
2024-02-11T09:15:50.645Z,52.15
2024-02-11T09:18:21.507Z,51.99
2024-02-11T09:20:49.113Z,51.76
2024-02-11T09:23:16.671Z,51.98
2024-02-11T09:25:44.454Z,51.68
2024-02-11T09:28:12.049Z,50.76
2024-02-11T09:30:43.688Z,50.99
2024-02-11T09:33:11.616Z,50.83
2024-02-11T09:35:39.484Z,51.02
2024-02-11T09:38:07.097Z,50.37
2024-02-11T09:40:36.550Z,51.56
2024-02-11T09:43:05.037Z,51.25
2024-02-11T09:45:34.228Z,50.84
2024-02-11T09:48:06.543Z,50.78
2024-02-11T09:50:36.566Z,50.75
2024-02-11T09:53:04.722Z,50.82
2024-02-11T09:55:32.847Z,50.06
2024-02-11T09:58:00.692Z,49.95
2024-02-11T10:00:28.682Z,50.32
2024-02-11T10:02:59.473Z,50.18
2024-02-11T10:05:31.595Z,48.99
2024-02-11T10:08:01.357Z,49.26
2024-02-11T10:10:29.491Z,48.69
2024-02-11T10:12:58.672Z,49.67
2024-02-11T10:15:26.932Z,49.10
2024-02-11T10:17:54.445Z,48.58
2024-02-11T10:20:21.949Z,48.16
2024-02-11T10:22:50.458Z,48.34
2024-02-11T10:25:18.934Z,48.41
2024-02-11T10:27:47.015Z,48.40
2024-02-11T10:30:15.324Z,48.83
2024-02-11T10:32:43.499Z,48.70
2024-02-11T10:35:13.006Z,48.52
2024-02-11T10:37:49.555Z,48.69
2024-02-11T10:40:21.015Z,48.14
2024-02-11T10:42:52.095Z,47.99
2024-02-11T10:45:19.752Z,47.14
2024-02-11T10:47:47.472Z,46.38
2024-02-11T10:50:15.306Z,45.02
2024-02-11T10:52:44.736Z,44.25
2024-02-11T10:55:14.319Z,43.36
2024-02-11T10:57:56.195Z,43.40
2024-02-11T11:00:28.817Z,44.11
2024-02-11T11:03:01.499Z,44.71
2024-02-11T11:05:33.855Z,45.18
2024-02-11T11:08:03.181Z,45.49
2024-02-11T11:10:39.333Z,45.41
2024-02-11T11:13:10.760Z,45.34
2024-02-11T11:15:39.373Z,45.32
2024-02-11T11:18:12.024Z,45.71
2024-02-11T11:20:56.653Z,45.63
2024-02-11T11:23:30.577Z,44.98
2024-02-11T11:25:58.358Z,44.72
2024-02-11T11:28:33.165Z,44.68
2024-02-11T11:31:00.621Z,45.48
2024-02-11T11:33:33.790Z,45.21
2024-02-11T11:36:05.618Z,44.92
2024-02-11T11:38:34.952Z,44.73
2024-02-11T11:41:03.923Z,44.64
2024-02-11T11:43:34.578Z,43.80
2024-02-11T11:46:06.453Z,44.09
2024-02-11T11:48:37.646Z,43.68
2024-02-11T11:51:13.448Z,43.53
2024-02-11T11:53:45.097Z,43.13
2024-02-11T11:56:15.753Z,43.64
2024-02-11T11:58:44.528Z,43.28
2024-02-11T12:01:12.307Z,43.64
2024-02-11T12:03:41.173Z,43.84
2024-02-11T12:06:10.119Z,43.86
2024-02-11T12:08:39.137Z,43.60
2024-02-11T12:11:16.831Z,43.63
2024-02-11T12:13:44.931Z,43.90
2024-02-11T12:16:17.304Z,43.70
2024-02-11T12:18:46.072Z,43.54
2024-02-11T12:21:15.275Z,43.94
2024-02-11T12:23:43.181Z,44.05
2024-02-11T12:26:10.787Z,44.23
2024-02-11T12:28:40.911Z,44.51
2024-02-11T12:31:15.812Z,44.20
2024-02-11T12:33:45.722Z,44.37
2024-02-11T12:36:15.048Z,44.27
2024-02-11T12:38:47.529Z,44.19
2024-02-11T12:41:17.387Z,44.46
2024-02-11T12:43:46.494Z,44.04
2024-02-11T12:46:14.179Z,44.34
2024-02-11T12:48:44.351Z,43.97
2024-02-11T12:51:15.201Z,43.74
2024-02-11T12:53:43.878Z,43.38
2024-02-11T12:56:12.481Z,43.79
2024-02-11T12:58:46.694Z,44.27
2024-02-11T13:01:16.704Z,45.19
2024-02-11T13:03:44.916Z,46.02
2024-02-11T13:06:12.757Z,46.44
2024-02-11T13:08:40.991Z,46.53
2024-02-11T13:11:11.782Z,46.75
2024-02-11T13:13:40.488Z,46.72
2024-02-11T13:16:12.148Z,46.37
2024-02-11T13:18:40.547Z,46.75
2024-02-11T13:21:08.674Z,47.31
2024-02-11T13:23:39.934Z,47.35
2024-02-11T13:26:07.506Z,47.49
2024-02-11T13:28:35.193Z,47.41
2024-02-11T13:31:10.726Z,46.41
2024-02-11T13:33:51.524Z,46.87
2024-02-11T13:36:20.133Z,46.68
2024-02-11T13:38:47.553Z,46.94
2024-02-11T13:41:15.316Z,47.07
2024-02-11T13:43:45.087Z,47.24
2024-02-11T13:46:15.194Z,47.15
2024-02-11T13:48:44.324Z,46.99
2024-02-11T13:51:12.603Z,46.68
2024-02-11T13:53:41.995Z,46.83
2024-02-11T13:56:13.958Z,46.49
2024-02-11T13:58:44.988Z,46.80
2024-02-11T14:01:15.794Z,46.76
2024-02-11T14:03:45.071Z,46.19
2024-02-11T14:06:17.302Z,46.07
2024-02-11T14:08:49.238Z,45.68
2024-02-11T14:11:17.755Z,45.79
2024-02-11T14:13:52.801Z,46.22
2024-02-11T14:16:25.640Z,46.14
2024-02-11T14:18:55.762Z,45.88
2024-02-11T14:21:39.141Z,46.03
2024-02-11T14:24:34.633Z,45.97
2024-02-11T14:27:05.190Z,46.05
2024-02-11T14:29:34.367Z,45.75
2024-02-11T14:32:11.319Z,46.31
2024-02-11T14:34:41.343Z,45.72
2024-02-11T14:37:08.998Z,45.62
2024-02-11T14:39:36.420Z,45.60
2024-02-11T14:42:07.180Z,46.76
2024-02-11T14:44:35.568Z,47.94
2024-02-11T14:50:10.889Z,48.96
2024-02-11T14:52:39.073Z,49.54
2024-02-11T14:55:08.094Z,49.81
2024-02-11T14:57:36.897Z,50.47
2024-02-11T15:00:14.382Z,50.55
2024-02-11T15:02:44.678Z,50.53
2024-02-11T15:05:16.414Z,50.52
2024-02-11T15:07:44.936Z,50.57
2024-02-11T15:10:14.556Z,50.37
2024-02-11T15:12:42.033Z,50.46
2024-02-11T15:15:09.784Z,50.78
2024-02-11T15:17:37.931Z,50.58
2024-02-11T15:20:06.188Z,51.15
2024-02-11T15:22:34.074Z,51.40
2024-02-11T15:25:01.562Z,51.73
2024-02-11T15:27:31.492Z,51.69
2024-02-11T15:30:07.977Z,52.28
2024-02-11T15:32:36.154Z,52.09
2024-02-11T15:35:07.385Z,52.35
2024-02-11T15:37:35.584Z,53.08
2024-02-11T15:43:16.130Z,53.24
2024-02-11T15:45:43.942Z,52.62
2024-02-11T15:48:14.041Z,52.61
2024-02-11T15:50:42.224Z,53.65
2024-02-11T15:53:09.727Z,54.75
2024-02-11T15:55:37.581Z,55.00
2024-02-11T15:58:05.841Z,54.51
2024-02-11T16:04:44.268Z,54.91
2024-02-11T16:07:13.610Z,55.02
2024-02-11T16:09:52.890Z,54.98
2024-02-11T16:12:20.852Z,55.85
2024-02-11T16:14:48.259Z,56.50
2024-02-11T16:17:15.763Z,56.40
2024-02-11T16:19:43.699Z,56.35
2024-02-11T16:22:11.157Z,56.52
2024-02-11T16:24:38.536Z,57.38
2024-02-11T16:27:06.518Z,57.22
2024-02-11T16:30:06.958Z,57.18
2024-02-11T16:32:37.677Z,57.31
2024-02-11T16:35:06.723Z,59.73
2024-02-11T16:37:34.245Z,60.11
2024-02-11T16:40:02.560Z,60.99
2024-02-11T16:42:30.294Z,60.63
2024-02-11T16:45:01.736Z,61.73
2024-02-11T16:47:30.845Z,62.94
2024-02-11T16:49:59.150Z,62.75
2024-02-11T16:52:28.351Z,62.80
2024-02-11T16:54:56.988Z,61.86
2024-02-11T16:57:24.422Z,61.33
2024-02-11T16:59:52.238Z,60.67
2024-02-11T17:02:20.302Z,60.21
2024-02-11T17:04:50.336Z,61.69
2024-02-11T17:07:17.934Z,61.30
2024-02-11T17:09:51.111Z,60.60
2024-02-11T17:12:19.564Z,61.52
2024-02-11T17:14:47.425Z,61.84
2024-02-11T17:17:16.089Z,61.36
2024-02-11T17:19:45.276Z,60.41
2024-02-11T17:22:14.878Z,60.19
2024-02-11T17:24:42.480Z,59.88
2024-02-11T17:27:10.332Z,60.60
2024-02-11T17:29:40.455Z,61.01
2024-02-11T17:32:17.160Z,61.85
2024-02-11T17:34:53.727Z,61.71
2024-02-11T17:37:21.221Z,62.22
2024-02-11T17:39:50.585Z,62.52
2024-02-11T17:42:18.574Z,62.50
2024-02-11T17:44:46.111Z,62.25
2024-02-11T17:47:14.703Z,64.36
2024-02-11T17:49:43.650Z,64.37
2024-02-11T17:52:11.189Z,64.77
2024-02-11T17:54:41.701Z,63.94
2024-02-11T17:57:09.796Z,62.97
2024-02-11T17:59:38.863Z,64.10
2024-02-11T18:02:06.717Z,63.39
2024-02-11T18:04:34.666Z,64.22
2024-02-11T18:07:02.261Z,66.70
2024-02-11T18:09:30.280Z,69.18
2024-02-11T18:11:58.042Z,70.93
2024-02-11T18:14:25.745Z,73.07
2024-02-11T18:16:55.042Z,75.80
2024-02-11T18:19:22.865Z,76.13
2024-02-11T18:21:53.201Z,74.12
2024-02-11T18:24:21.118Z,72.23
2024-02-11T18:26:50.524Z,75.68
2024-02-11T18:29:18.656Z,76.12
2024-02-11T18:31:48.085Z,77.04
2024-02-11T18:34:16.549Z,76.31
2024-02-11T18:36:46.704Z,76.24
2024-02-11T18:39:16.055Z,76.10
2024-02-11T18:41:44.430Z,75.08
2024-02-11T18:44:12.307Z,74.66
2024-02-11T18:46:40.110Z,75.98
2024-02-11T18:49:07.915Z,79.07
2024-02-11T18:51:38.716Z,85.49
2024-02-11T18:54:08.942Z,91.54
2024-02-11T18:56:38.102Z,96.01
2024-02-11T18:59:09.198Z,95.85
2024-02-11T19:01:38.162Z,97.47
2024-02-11T19:04:06.023Z,94.16
2024-02-11T19:06:34.761Z,96.41
2024-02-11T19:09:02.535Z,98.10
2024-02-11T19:11:29.962Z,100.00
2024-02-11T19:14:01.725Z,100.00
2024-02-11T19:16:29.741Z,100.00
2024-02-11T19:18:59.691Z,100.00
2024-02-11T19:21:27.234Z,100.00
2024-02-11T19:23:55.093Z,100.00
2024-02-11T19:26:22.575Z,100.00
2024-02-11T19:28:50.129Z,100.00
2024-02-11T19:31:18.977Z,100.00
2024-02-11T19:34:06.307Z,100.00
2024-02-11T19:36:35.216Z,100.00
2024-02-11T19:39:03.336Z,100.00
2024-02-11T19:41:31.102Z,100.00
2024-02-11T19:43:59.449Z,100.00
2024-02-11T19:46:27.331Z,100.00
2024-02-11T19:48:57.123Z,100.00
2024-02-11T19:51:27.667Z,100.00
2024-02-11T19:53:54.940Z,100.00
2024-02-11T19:56:22.460Z,100.00
2024-02-11T19:58:51.426Z,100.00
2024-02-11T20:01:19.026Z,100.00
2024-02-11T20:03:50.696Z,100.00
2024-02-11T20:06:18.217Z,100.00
2024-02-11T20:08:48.130Z,100.00
2024-02-11T20:11:16.825Z,100.00
2024-02-11T20:13:44.491Z,100.00
2024-02-11T20:16:13.791Z,100.00
2024-02-11T20:18:41.973Z,100.00
2024-02-11T20:21:10.842Z,100.00
2024-02-11T20:23:38.658Z,100.00
2024-02-11T20:26:09.158Z,100.00
2024-02-11T20:28:36.753Z,100.00
2024-02-11T20:31:04.250Z,100.00
2024-02-11T20:33:32.098Z,100.00
2024-02-11T20:36:00.140Z,100.00
2024-02-11T20:38:28.391Z,100.00
2024-02-11T20:41:00.510Z,100.00
2024-02-11T20:43:28.171Z,100.00
2024-02-11T20:45:55.992Z,100.00
2024-02-11T20:48:25.529Z,100.00
2024-02-11T20:50:53.171Z,100.00
2024-02-11T20:53:21.921Z,100.00
2024-02-11T20:55:52.639Z,100.00
2024-02-11T20:58:22.910Z,100.00
2024-02-11T21:00:51.175Z,100.00
2024-02-11T21:03:18.690Z,100.00
2024-02-11T21:05:46.372Z,100.00
2024-02-11T21:08:15.219Z,100.00
2024-02-11T21:10:42.680Z,100.00
2024-02-11T21:13:30.942Z,100.00
2024-02-11T21:15:58.878Z,100.00
2024-02-11T21:18:26.355Z,100.00
2024-02-11T21:20:53.815Z,100.00
2024-02-11T21:23:21.645Z,100.00
2024-02-11T21:25:50.087Z,100.00
2024-02-11T21:28:17.504Z,100.00
2024-02-11T21:30:48.696Z,100.00
2024-02-11T21:33:18.955Z,100.00
2024-02-11T21:35:46.906Z,100.00
2024-02-11T21:38:14.494Z,100.00
2024-02-11T21:40:42.149Z,100.00
2024-02-11T21:43:12.770Z,100.00
2024-02-11T21:45:43.121Z,100.00
2024-02-11T21:48:11.721Z,100.00
2024-02-11T21:50:39.319Z,100.00
2024-02-11T21:53:10.840Z,100.00
2024-02-11T21:55:39.185Z,100.00
2024-02-11T21:58:06.603Z,100.00
2024-02-11T22:00:33.966Z,100.00
2024-02-11T22:03:08.665Z,100.00
2024-02-11T22:05:37.861Z,100.00
2024-02-11T22:08:09.188Z,100.00
2024-02-11T22:10:36.606Z,100.00
2024-02-11T22:13:06.357Z,100.00
2024-02-11T22:15:34.342Z,100.00
2024-02-11T22:18:03.666Z,100.00
2024-02-11T22:20:31.545Z,100.00
2024-02-11T22:23:00.042Z,100.00
2024-02-11T22:25:27.437Z,100.00
2024-02-11T22:28:15.232Z,100.00
2024-02-11T22:30:42.964Z,100.00
2024-02-11T22:33:12.633Z,100.00
2024-02-11T22:35:40.836Z,100.00
2024-02-11T22:38:09.789Z,100.00
2024-02-11T22:40:37.232Z,100.00
2024-02-11T22:43:06.553Z,100.00
2024-02-11T22:45:35.126Z,100.00
2024-02-11T22:48:04.665Z,100.00
2024-02-11T22:50:32.518Z,100.00
2024-02-11T22:53:00.444Z,100.00
2024-02-11T22:55:27.808Z,100.00
2024-02-11T22:57:57.099Z,100.00
2024-02-11T23:00:37.036Z,100.00
2024-02-11T23:03:06.220Z,100.00
2024-02-11T23:05:38.864Z,100.00
2024-02-11T23:08:09.077Z,100.00
2024-02-11T23:10:38.002Z,100.00
2024-02-11T23:13:05.502Z,100.00
2024-02-11T23:15:34.016Z,100.00
2024-02-11T23:18:21.468Z,100.00
2024-02-11T23:20:51.194Z,100.00
2024-02-11T23:23:19.263Z,100.00
2024-02-11T23:25:46.972Z,100.00
2024-02-11T23:28:20.634Z,100.00
2024-02-11T23:30:49.933Z,100.00
2024-02-11T23:33:18.222Z,100.00
2024-02-11T23:35:46.854Z,100.00
2024-02-11T23:38:14.849Z,100.00
2024-02-11T23:40:46.916Z,100.00
2024-02-11T23:43:14.616Z,100.00
2024-02-11T23:45:42.829Z,100.00
2024-02-11T23:48:10.524Z,100.00
2024-02-11T23:50:39.133Z,100.00
2024-02-11T23:53:08.370Z,100.00
2024-02-11T23:55:36.662Z,100.00
2024-02-11T23:58:05.905Z,100.00
